sensor_id;sensor_type;location;lat;lon;timestamp;P1;durP1;ratioP1;P2;durP2;ratioP2
55718;SDS011;41623;46.104;19.656;2022-12-07T00:00:50;31.25;;;17.05;;
55718;SDS011;41623;46.104;19.656;2022-12-07T00:03:16;43.95;;;17.25;;
55718;SDS011;41623;46.104;19.656;2022-12-07T00:05:42;40.95;;;17.48;;
55718;SDS011;41623;46.104;19.656;2022-12-07T00:08:08;41.88;;;15.05;;
55718;SDS011;41623;46.104;19.656;2022-12-07T00:10:34;28.60;;;13.57;;
55718;SDS011;41623;46.104;19.656;2022-12-07T00:13:00;38.53;;;14.98;;
55718;SDS011;41623;46.104;19.656;2022-12-07T00:15:26;22.77;;;12.23;;
55718;SDS011;41623;46.104;19.656;2022-12-07T00:17:52;22.02;;;10.88;;
55718;SDS011;41623;46.104;19.656;2022-12-07T00:20:18;30.50;;;13.88;;
55718;SDS011;41623;46.104;19.656;2022-12-07T00:22:44;28.60;;;12.52;;
55718;SDS011;41623;46.104;19.656;2022-12-07T00:25:11;26.83;;;12.05;;
55718;SDS011;41623;46.104;19.656;2022-12-07T00:27:37;26.33;;;12.15;;
55718;SDS011;41623;46.104;19.656;2022-12-07T00:30:03;21.73;;;9.98;;
55718;SDS011;41623;46.104;19.656;2022-12-07T00:32:29;21.98;;;12.07;;
55718;SDS011;41623;46.104;19.656;2022-12-07T00:34:55;18.17;;;9.65;;
55718;SDS011;41623;46.104;19.656;2022-12-07T00:37:21;20.52;;;10.60;;
55718;SDS011;41623;46.104;19.656;2022-12-07T00:39:47;23.75;;;12.38;;
55718;SDS011;41623;46.104;19.656;2022-12-07T00:42:13;17.02;;;9.13;;
55718;SDS011;41623;46.104;19.656;2022-12-07T00:44:40;23.23;;;10.63;;
55718;SDS011;41623;46.104;19.656;2022-12-07T00:47:06;24.50;;;8.65;;
55718;SDS011;41623;46.104;19.656;2022-12-07T00:49:32;21.70;;;10.48;;
55718;SDS011;41623;46.104;19.656;2022-12-07T00:51:58;18.77;;;10.00;;
55718;SDS011;41623;46.104;19.656;2022-12-07T00:54:24;19.92;;;10.02;;
55718;SDS011;41623;46.104;19.656;2022-12-07T00:56:50;16.55;;;9.13;;
55718;SDS011;41623;46.104;19.656;2022-12-07T00:59:16;20.50;;;9.27;;
55718;SDS011;41623;46.104;19.656;2022-12-07T01:01:42;27.25;;;11.25;;
55718;SDS011;41623;46.104;19.656;2022-12-07T01:04:08;24.13;;;10.23;;
55718;SDS011;41623;46.104;19.656;2022-12-07T01:06:35;21.65;;;10.15;;
55718;SDS011;41623;46.104;19.656;2022-12-07T01:09:01;30.58;;;12.60;;
55718;SDS011;41623;46.104;19.656;2022-12-07T01:11:29;32.15;;;12.85;;
55718;SDS011;41623;46.104;19.656;2022-12-07T01:13:56;24.92;;;12.05;;
55718;SDS011;41623;46.104;19.656;2022-12-07T01:16:23;30.20;;;14.70;;
55718;SDS011;41623;46.104;19.656;2022-12-07T01:18:50;32.50;;;13.32;;
55718;SDS011;41623;46.104;19.656;2022-12-07T01:21:17;29.10;;;13.82;;
55718;SDS011;41623;46.104;19.656;2022-12-07T01:23:44;27.20;;;11.63;;
55718;SDS011;41623;46.104;19.656;2022-12-07T01:26:11;29.63;;;13.07;;
55718;SDS011;41623;46.104;19.656;2022-12-07T01:28:38;26.67;;;13.70;;
55718;SDS011;41623;46.104;19.656;2022-12-07T01:31:10;25.85;;;13.32;;
55718;SDS011;41623;46.104;19.656;2022-12-07T01:33:40;28.45;;;12.15;;
55718;SDS011;41623;46.104;19.656;2022-12-07T01:41:17;33.08;;;14.77;;
55718;SDS011;41623;46.104;19.656;2022-12-07T01:46:29;40.88;;;16.25;;
55718;SDS011;41623;46.104;19.656;2022-12-07T01:48:55;47.15;;;18.83;;
55718;SDS011;41623;46.104;19.656;2022-12-07T01:51:21;44.05;;;19.45;;
55718;SDS011;41623;46.104;19.656;2022-12-07T01:53:49;50.10;;;21.50;;
55718;SDS011;41623;46.104;19.656;2022-12-07T01:56:17;35.72;;;17.52;;
55718;SDS011;41623;46.104;19.656;2022-12-07T01:58:44;47.03;;;20.52;;
55718;SDS011;41623;46.104;19.656;2022-12-07T02:01:15;61.70;;;23.10;;
55718;SDS011;41623;46.104;19.656;2022-12-07T02:03:42;45.08;;;22.08;;
55718;SDS011;41623;46.104;19.656;2022-12-07T02:06:09;55.60;;;27.10;;
55718;SDS011;41623;46.104;19.656;2022-12-07T02:08:36;70.68;;;29.33;;
55718;SDS011;41623;46.104;19.656;2022-12-07T02:11:03;53.33;;;24.65;;
55718;SDS011;41623;46.104;19.656;2022-12-07T02:13:30;49.08;;;25.75;;
55718;SDS011;41623;46.104;19.656;2022-12-07T02:18:37;65.50;;;27.70;;
55718;SDS011;41623;46.104;19.656;2022-12-07T02:21:08;47.97;;;24.50;;
55718;SDS011;41623;46.104;19.656;2022-12-07T02:31:20;75.50;;;29.77;;
55718;SDS011;41623;46.104;19.656;2022-12-07T02:33:51;74.93;;;30.85;;
55718;SDS011;41623;46.104;19.656;2022-12-07T02:36:21;69.17;;;26.23;;
55718;SDS011;41623;46.104;19.656;2022-12-07T02:38:54;62.38;;;26.52;;
55718;SDS011;41623;46.104;19.656;2022-12-07T02:41:22;50.53;;;27.05;;
55718;SDS011;41623;46.104;19.656;2022-12-07T02:43:50;80.13;;;27.70;;
55718;SDS011;41623;46.104;19.656;2022-12-07T02:46:20;68.18;;;29.38;;
55718;SDS011;41623;46.104;19.656;2022-12-07T02:48:47;71.43;;;28.50;;
55718;SDS011;41623;46.104;19.656;2022-12-07T02:51:13;87.93;;;32.67;;
55718;SDS011;41623;46.104;19.656;2022-12-07T02:53:44;72.28;;;31.60;;
55718;SDS011;41623;46.104;19.656;2022-12-07T02:58:59;63.28;;;30.08;;
55718;SDS011;41623;46.104;19.656;2022-12-07T03:01:40;66.97;;;28.83;;
55718;SDS011;41623;46.104;19.656;2022-12-07T03:06:38;60.05;;;28.52;;
55718;SDS011;41623;46.104;19.656;2022-12-07T03:09:15;66.15;;;32.65;;
55718;SDS011;41623;46.104;19.656;2022-12-07T03:11:51;62.17;;;26.65;;
55718;SDS011;41623;46.104;19.656;2022-12-07T03:14:22;55.70;;;25.13;;
55718;SDS011;41623;46.104;19.656;2022-12-07T03:19:45;54.80;;;23.73;;
55718;SDS011;41623;46.104;19.656;2022-12-07T03:22:13;51.35;;;24.63;;
55718;SDS011;41623;46.104;19.656;2022-12-07T03:24:59;61.10;;;24.33;;
55718;SDS011;41623;46.104;19.656;2022-12-07T03:27:31;73.25;;;25.80;;
55718;SDS011;41623;46.104;19.656;2022-12-07T03:30:08;49.20;;;23.05;;
55718;SDS011;41623;46.104;19.656;2022-12-07T03:32:40;63.15;;;24.13;;
55718;SDS011;41623;46.104;19.656;2022-12-07T03:37:50;56.55;;;26.20;;
55718;SDS011;41623;46.104;19.656;2022-12-07T03:40:30;60.40;;;26.08;;
55718;SDS011;41623;46.104;19.656;2022-12-07T03:42:59;59.15;;;23.63;;
55718;SDS011;41623;46.104;19.656;2022-12-07T03:45:31;46.97;;;21.75;;
55718;SDS011;41623;46.104;19.656;2022-12-07T03:48:15;58.08;;;24.73;;
55718;SDS011;41623;46.104;19.656;2022-12-07T03:50:49;56.20;;;25.83;;
55718;SDS011;41623;46.104;19.656;2022-12-07T03:55:43;49.97;;;28.92;;
55718;SDS011;41623;46.104;19.656;2022-12-07T03:58:11;66.00;;;26.92;;
55718;SDS011;41623;46.104;19.656;2022-12-07T04:00:38;58.95;;;27.85;;
55718;SDS011;41623;46.104;19.656;2022-12-07T04:03:05;57.35;;;24.27;;
55718;SDS011;41623;46.104;19.656;2022-12-07T04:05:32;61.50;;;27.85;;
55718;SDS011;41623;46.104;19.656;2022-12-07T04:07:58;73.45;;;29.75;;
55718;SDS011;41623;46.104;19.656;2022-12-07T04:10:24;78.35;;;29.52;;
55718;SDS011;41623;46.104;19.656;2022-12-07T04:12:50;77.28;;;28.83;;
55718;SDS011;41623;46.104;19.656;2022-12-07T04:15:16;69.28;;;32.08;;
55718;SDS011;41623;46.104;19.656;2022-12-07T04:17:42;83.53;;;31.48;;
55718;SDS011;41623;46.104;19.656;2022-12-07T04:20:09;84.50;;;31.63;;
55718;SDS011;41623;46.104;19.656;2022-12-07T04:22:35;74.30;;;33.28;;
55718;SDS011;41623;46.104;19.656;2022-12-07T04:25:01;68.53;;;31.90;;
55718;SDS011;41623;46.104;19.656;2022-12-07T04:27:27;87.75;;;32.88;;
55718;SDS011;41623;46.104;19.656;2022-12-07T04:29:57;73.65;;;30.42;;
55718;SDS011;41623;46.104;19.656;2022-12-07T04:32:24;76.50;;;29.38;;
55718;SDS011;41623;46.104;19.656;2022-12-07T04:34:50;54.60;;;24.83;;
55718;SDS011;41623;46.104;19.656;2022-12-07T04:37:16;65.50;;;27.65;;
55718;SDS011;41623;46.104;19.656;2022-12-07T04:39:42;63.05;;;26.42;;
55718;SDS011;41623;46.104;19.656;2022-12-07T04:42:10;65.88;;;25.77;;
55718;SDS011;41623;46.104;19.656;2022-12-07T04:44:37;54.45;;;23.00;;
55718;SDS011;41623;46.104;19.656;2022-12-07T04:47:04;48.72;;;22.52;;
55718;SDS011;41623;46.104;19.656;2022-12-07T04:49:30;52.53;;;22.40;;
55718;SDS011;41623;46.104;19.656;2022-12-07T04:51:56;44.35;;;22.85;;
55718;SDS011;41623;46.104;19.656;2022-12-07T04:54:22;61.17;;;22.30;;
55718;SDS011;41623;46.104;19.656;2022-12-07T04:56:48;60.85;;;19.55;;
55718;SDS011;41623;46.104;19.656;2022-12-07T04:59:16;53.00;;;24.52;;
55718;SDS011;41623;46.104;19.656;2022-12-07T05:01:42;50.45;;;23.02;;
55718;SDS011;41623;46.104;19.656;2022-12-07T05:04:10;51.42;;;22.13;;
55718;SDS011;41623;46.104;19.656;2022-12-07T05:06:36;48.20;;;19.55;;
55718;SDS011;41623;46.104;19.656;2022-12-07T05:09:02;63.85;;;24.58;;
55718;SDS011;41623;46.104;19.656;2022-12-07T05:11:28;46.40;;;20.83;;
55718;SDS011;41623;46.104;19.656;2022-12-07T05:16:35;37.70;;;19.55;;
55718;SDS011;41623;46.104;19.656;2022-12-07T05:19:02;39.10;;;17.83;;
55718;SDS011;41623;46.104;19.656;2022-12-07T05:21:30;34.63;;;18.52;;
55718;SDS011;41623;46.104;19.656;2022-12-07T05:23:56;54.42;;;21.10;;
55718;SDS011;41623;46.104;19.656;2022-12-07T05:26:22;59.92;;;22.15;;
55718;SDS011;41623;46.104;19.656;2022-12-07T05:28:51;46.17;;;19.67;;
55718;SDS011;41623;46.104;19.656;2022-12-07T05:31:18;55.67;;;21.45;;
55718;SDS011;41623;46.104;19.656;2022-12-07T05:33:44;44.15;;;21.02;;
55718;SDS011;41623;46.104;19.656;2022-12-07T05:36:10;61.53;;;22.48;;
55718;SDS011;41623;46.104;19.656;2022-12-07T05:38:36;55.33;;;20.88;;
55718;SDS011;41623;46.104;19.656;2022-12-07T05:41:03;54.28;;;20.35;;
55718;SDS011;41623;46.104;19.656;2022-12-07T05:43:29;42.35;;;17.13;;
55718;SDS011;41623;46.104;19.656;2022-12-07T05:45:55;42.50;;;18.73;;
55718;SDS011;41623;46.104;19.656;2022-12-07T05:48:22;38.60;;;20.35;;
55718;SDS011;41623;46.104;19.656;2022-12-07T05:50:48;35.92;;;19.35;;
55718;SDS011;41623;46.104;19.656;2022-12-07T05:53:15;44.20;;;19.38;;
55718;SDS011;41623;46.104;19.656;2022-12-07T05:55:41;43.85;;;20.83;;
55718;SDS011;41623;46.104;19.656;2022-12-07T05:58:07;49.80;;;21.77;;
55718;SDS011;41623;46.104;19.656;2022-12-07T06:01:10;44.45;;;18.80;;
55718;SDS011;41623;46.104;19.656;2022-12-07T06:03:36;55.70;;;22.67;;
55718;SDS011;41623;46.104;19.656;2022-12-07T06:06:02;45.78;;;22.13;;
55718;SDS011;41623;46.104;19.656;2022-12-07T06:08:28;51.72;;;23.00;;
55718;SDS011;41623;46.104;19.656;2022-12-07T06:10:54;45.05;;;22.50;;
55718;SDS011;41623;46.104;19.656;2022-12-07T06:13:40;45.80;;;23.95;;
55718;SDS011;41623;46.104;19.656;2022-12-07T06:16:06;53.88;;;23.42;;
55718;SDS011;41623;46.104;19.656;2022-12-07T06:18:32;44.55;;;21.65;;
55718;SDS011;41623;46.104;19.656;2022-12-07T06:21:00;39.38;;;20.92;;
55718;SDS011;41623;46.104;19.656;2022-12-07T06:23:26;31.45;;;17.38;;
55718;SDS011;41623;46.104;19.656;2022-12-07T06:25:52;56.83;;;21.13;;
55718;SDS011;41623;46.104;19.656;2022-12-07T06:28:18;46.50;;;20.63;;
55718;SDS011;41623;46.104;19.656;2022-12-07T06:30:44;52.85;;;23.52;;
55718;SDS011;41623;46.104;19.656;2022-12-07T06:33:10;61.50;;;23.48;;
55718;SDS011;41623;46.104;19.656;2022-12-07T06:35:37;53.40;;;22.70;;
55718;SDS011;41623;46.104;19.656;2022-12-07T06:38:03;55.17;;;24.38;;
55718;SDS011;41623;46.104;19.656;2022-12-07T06:40:29;50.22;;;22.48;;
55718;SDS011;41623;46.104;19.656;2022-12-07T06:42:55;53.17;;;23.48;;
55718;SDS011;41623;46.104;19.656;2022-12-07T06:45:22;50.42;;;21.75;;
55718;SDS011;41623;46.104;19.656;2022-12-07T06:47:48;50.83;;;23.92;;
55718;SDS011;41623;46.104;19.656;2022-12-07T06:50:14;56.58;;;26.05;;
55718;SDS011;41623;46.104;19.656;2022-12-07T06:52:40;50.55;;;22.70;;
55718;SDS011;41623;46.104;19.656;2022-12-07T06:55:06;44.35;;;22.27;;
55718;SDS011;41623;46.104;19.656;2022-12-07T06:57:32;45.53;;;23.15;;
55718;SDS011;41623;46.104;19.656;2022-12-07T06:59:59;51.10;;;23.13;;
55718;SDS011;41623;46.104;19.656;2022-12-07T07:02:25;57.95;;;26.77;;
55718;SDS011;41623;46.104;19.656;2022-12-07T07:04:52;59.47;;;23.58;;
55718;SDS011;41623;46.104;19.656;2022-12-07T07:07:18;52.78;;;24.10;;
55718;SDS011;41623;46.104;19.656;2022-12-07T07:09:44;56.38;;;25.70;;
55718;SDS011;41623;46.104;19.656;2022-12-07T07:12:10;68.18;;;25.90;;
55718;SDS011;41623;46.104;19.656;2022-12-07T07:14:36;58.63;;;25.67;;
55718;SDS011;41623;46.104;19.656;2022-12-07T07:17:02;56.88;;;27.95;;
55718;SDS011;41623;46.104;19.656;2022-12-07T07:19:28;59.65;;;27.27;;
55718;SDS011;41623;46.104;19.656;2022-12-07T07:21:54;72.13;;;27.45;;
55718;SDS011;41623;46.104;19.656;2022-12-07T07:24:20;66.82;;;29.30;;
55718;SDS011;41623;46.104;19.656;2022-12-07T07:26:46;79.63;;;34.47;;
55718;SDS011;41623;46.104;19.656;2022-12-07T07:29:13;67.78;;;32.45;;
55718;SDS011;41623;46.104;19.656;2022-12-07T07:31:39;69.10;;;31.33;;
55718;SDS011;41623;46.104;19.656;2022-12-07T07:34:05;65.90;;;27.52;;
55718;SDS011;41623;46.104;19.656;2022-12-07T07:36:32;74.70;;;31.38;;
55718;SDS011;41623;46.104;19.656;2022-12-07T07:38:58;90.93;;;38.10;;
55718;SDS011;41623;46.104;19.656;2022-12-07T07:41:24;100.35;;;41.53;;
55718;SDS011;41623;46.104;19.656;2022-12-07T07:43:50;94.80;;;37.38;;
55718;SDS011;41623;46.104;19.656;2022-12-07T07:46:16;79.80;;;34.58;;
55718;SDS011;41623;46.104;19.656;2022-12-07T07:48:42;92.35;;;40.05;;
55718;SDS011;41623;46.104;19.656;2022-12-07T07:51:09;86.07;;;34.85;;
55718;SDS011;41623;46.104;19.656;2022-12-07T07:53:35;94.32;;;35.08;;
55718;SDS011;41623;46.104;19.656;2022-12-07T07:56:01;77.63;;;33.63;;
55718;SDS011;41623;46.104;19.656;2022-12-07T07:58:27;88.22;;;39.13;;
55718;SDS011;41623;46.104;19.656;2022-12-07T08:00:54;88.97;;;38.90;;
55718;SDS011;41623;46.104;19.656;2022-12-07T08:03:20;92.50;;;36.92;;
55718;SDS011;41623;46.104;19.656;2022-12-07T08:05:46;77.40;;;36.70;;
55718;SDS011;41623;46.104;19.656;2022-12-07T08:08:12;90.28;;;36.47;;
55718;SDS011;41623;46.104;19.656;2022-12-07T08:10:39;73.55;;;39.15;;
55718;SDS011;41623;46.104;19.656;2022-12-07T08:13:05;69.05;;;35.70;;
55718;SDS011;41623;46.104;19.656;2022-12-07T08:15:39;73.03;;;32.80;;
55718;SDS011;41623;46.104;19.656;2022-12-07T08:18:05;85.05;;;33.67;;
55718;SDS011;41623;46.104;19.656;2022-12-07T08:20:32;85.85;;;37.85;;
55718;SDS011;41623;46.104;19.656;2022-12-07T08:22:59;76.10;;;33.83;;
55718;SDS011;41623;46.104;19.656;2022-12-07T08:25:25;88.35;;;36.40;;
55718;SDS011;41623;46.104;19.656;2022-12-07T08:27:53;64.68;;;32.75;;
55718;SDS011;41623;46.104;19.656;2022-12-07T08:30:20;76.55;;;32.60;;
55718;SDS011;41623;46.104;19.656;2022-12-07T08:32:47;71.13;;;29.50;;
55718;SDS011;41623;46.104;19.656;2022-12-07T08:35:13;60.55;;;28.35;;
55718;SDS011;41623;46.104;19.656;2022-12-07T08:37:40;61.50;;;27.08;;
55718;SDS011;41623;46.104;19.656;2022-12-07T08:43:10;64.10;;;22.30;;
55718;SDS011;41623;46.104;19.656;2022-12-07T08:48:46;22.85;;;12.55;;
55718;SDS011;41623;46.104;19.656;2022-12-07T08:54:18;33.55;;;14.55;;
55718;SDS011;41623;46.104;19.656;2022-12-07T09:03:21;31.77;;;14.63;;
55718;SDS011;41623;46.104;19.656;2022-12-07T09:08:51;25.67;;;12.68;;
55718;SDS011;41623;46.104;19.656;2022-12-07T09:14:23;17.80;;;10.20;;
55718;SDS011;41623;46.104;19.656;2022-12-07T09:19:53;20.17;;;9.95;;
55718;SDS011;41623;46.104;19.656;2022-12-07T09:22:19;27.02;;;10.73;;
55718;SDS011;41623;46.104;19.656;2022-12-07T09:24:45;25.75;;;11.73;;
55718;SDS011;41623;46.104;19.656;2022-12-07T09:27:12;28.58;;;8.90;;
55718;SDS011;41623;46.104;19.656;2022-12-07T09:29:38;28.92;;;10.60;;
55718;SDS011;41623;46.104;19.656;2022-12-07T09:32:04;25.80;;;8.82;;
55718;SDS011;41623;46.104;19.656;2022-12-07T09:34:31;13.18;;;7.90;;
55718;SDS011;41623;46.104;19.656;2022-12-07T09:36:57;15.00;;;7.47;;
55718;SDS011;41623;46.104;19.656;2022-12-07T09:39:24;7.65;;;5.85;;
55718;SDS011;41623;46.104;19.656;2022-12-07T09:41:50;13.68;;;6.30;;
55718;SDS011;41623;46.104;19.656;2022-12-07T09:44:21;11.18;;;5.78;;
55718;SDS011;41623;46.104;19.656;2022-12-07T09:46:49;16.90;;;6.55;;
55718;SDS011;41623;46.104;19.656;2022-12-07T09:49:22;15.43;;;5.63;;
55718;SDS011;41623;46.104;19.656;2022-12-07T09:54:35;12.63;;;6.05;;
55718;SDS011;41623;46.104;19.656;2022-12-07T09:57:02;12.75;;;7.57;;
55718;SDS011;41623;46.104;19.656;2022-12-07T09:59:28;19.10;;;6.70;;
55718;SDS011;41623;46.104;19.656;2022-12-07T10:01:55;8.77;;;4.45;;
55718;SDS011;41623;46.104;19.656;2022-12-07T10:04:22;13.68;;;6.35;;
55718;SDS011;41623;46.104;19.656;2022-12-07T10:06:50;7.55;;;3.67;;
55718;SDS011;41623;46.104;19.656;2022-12-07T10:09:18;10.50;;;5.50;;
55718;SDS011;41623;46.104;19.656;2022-12-07T10:11:57;6.90;;;3.90;;
55718;SDS011;41623;46.104;19.656;2022-12-07T10:14:23;5.82;;;3.53;;
55718;SDS011;41623;46.104;19.656;2022-12-07T10:16:50;7.55;;;3.30;;
55718;SDS011;41623;46.104;19.656;2022-12-07T10:24:39;8.57;;;5.00;;
55718;SDS011;41623;46.104;19.656;2022-12-07T10:27:21;7.93;;;4.60;;
55718;SDS011;41623;46.104;19.656;2022-12-07T10:29:49;11.20;;;5.38;;
55718;SDS011;41623;46.104;19.656;2022-12-07T10:34:43;7.70;;;5.22;;
55718;SDS011;41623;46.104;19.656;2022-12-07T10:39:49;7.03;;;4.72;;
55718;SDS011;41623;46.104;19.656;2022-12-07T10:42:17;5.97;;;3.55;;
55718;SDS011;41623;46.104;19.656;2022-12-07T10:44:43;6.38;;;3.50;;
55718;SDS011;41623;46.104;19.656;2022-12-07T10:52:33;9.90;;;4.57;;
55718;SDS011;41623;46.104;19.656;2022-12-07T10:55:41;5.00;;;3.13;;
55718;SDS011;41623;46.104;19.656;2022-12-07T10:57:58;9.88;;;4.68;;
55718;SDS011;41623;46.104;19.656;2022-12-07T11:00:28;7.35;;;4.38;;
55718;SDS011;41623;46.104;19.656;2022-12-07T11:03:05;7.53;;;3.58;;
55718;SDS011;41623;46.104;19.656;2022-12-07T11:08:18;5.55;;;2.88;;
55718;SDS011;41623;46.104;19.656;2022-12-07T11:16:00;3.60;;;2.88;;
55718;SDS011;41623;46.104;19.656;2022-12-07T11:18:38;7.75;;;4.20;;
55718;SDS011;41623;46.104;19.656;2022-12-07T11:21:25;4.97;;;3.25;;
55718;SDS011;41623;46.104;19.656;2022-12-07T11:28:54;4.00;;;2.95;;
55718;SDS011;41623;46.104;19.656;2022-12-07T11:31:37;6.40;;;3.10;;
55718;SDS011;41623;46.104;19.656;2022-12-07T11:34:10;6.35;;;2.80;;
55718;SDS011;41623;46.104;19.656;2022-12-07T11:36:44;7.35;;;4.03;;
55718;SDS011;41623;46.104;19.656;2022-12-07T11:41:55;5.45;;;3.15;;
55718;SDS011;41623;46.104;19.656;2022-12-07T11:47:17;2.88;;;2.13;;
55718;SDS011;41623;46.104;19.656;2022-12-07T11:52:37;3.27;;;2.57;;
55718;SDS011;41623;46.104;19.656;2022-12-07T11:55:06;4.53;;;2.80;;
55718;SDS011;41623;46.104;19.656;2022-12-07T11:57:41;5.65;;;3.63;;
55718;SDS011;41623;46.104;19.656;2022-12-07T12:00:12;3.95;;;2.85;;
55718;SDS011;41623;46.104;19.656;2022-12-07T12:03:13;3.28;;;2.28;;
55718;SDS011;41623;46.104;19.656;2022-12-07T12:05:32;4.30;;;2.45;;
55718;SDS011;41623;46.104;19.656;2022-12-07T12:13:20;3.42;;;2.55;;
55718;SDS011;41623;46.104;19.656;2022-12-07T12:16:14;3.63;;;1.98;;
55718;SDS011;41623;46.104;19.656;2022-12-07T12:21:29;4.25;;;2.60;;
55718;SDS011;41623;46.104;19.656;2022-12-07T12:24:00;5.47;;;3.67;;
55718;SDS011;41623;46.104;19.656;2022-12-07T12:26:29;2.05;;;1.85;;
55718;SDS011;41623;46.104;19.656;2022-12-07T12:31:34;2.92;;;2.20;;
55718;SDS011;41623;46.104;19.656;2022-12-07T12:34:02;5.95;;;3.40;;
55718;SDS011;41623;46.104;19.656;2022-12-07T12:51:42;3.42;;;3.13;;
55718;SDS011;41623;46.104;19.656;2022-12-07T12:54:14;2.65;;;2.40;;
55718;SDS011;41623;46.104;19.656;2022-12-07T12:59:24;3.13;;;2.40;;
55718;SDS011;41623;46.104;19.656;2022-12-07T13:01:50;2.45;;;2.08;;
55718;SDS011;41623;46.104;19.656;2022-12-07T13:05:02;5.82;;;2.75;;
55718;SDS011;41623;46.104;19.656;2022-12-07T13:07:04;7.90;;;4.40;;
55718;SDS011;41623;46.104;19.656;2022-12-07T13:09:31;13.52;;;6.40;;
55718;SDS011;41623;46.104;19.656;2022-12-07T13:12:10;9.23;;;4.60;;
55718;SDS011;41623;46.104;19.656;2022-12-07T13:17:07;6.25;;;4.10;;
55718;SDS011;41623;46.104;19.656;2022-12-07T13:24:55;5.45;;;3.45;;
55718;SDS011;41623;46.104;19.656;2022-12-07T13:27:21;6.82;;;3.60;;
55718;SDS011;41623;46.104;19.656;2022-12-07T13:29:47;5.45;;;4.32;;
55718;SDS011;41623;46.104;19.656;2022-12-07T13:32:23;5.97;;;3.95;;
55718;SDS011;41623;46.104;19.656;2022-12-07T13:34:50;5.50;;;3.30;;
55718;SDS011;41623;46.104;19.656;2022-12-07T13:37:26;5.18;;;3.50;;
55718;SDS011;41623;46.104;19.656;2022-12-07T13:39:57;7.55;;;4.95;;
55718;SDS011;41623;46.104;19.656;2022-12-07T13:42:27;5.70;;;3.65;;
55718;SDS011;41623;46.104;19.656;2022-12-07T13:44:56;9.63;;;3.80;;
55718;SDS011;41623;46.104;19.656;2022-12-07T13:47:30;5.57;;;3.60;;
55718;SDS011;41623;46.104;19.656;2022-12-07T13:49:57;6.78;;;3.75;;
55718;SDS011;41623;46.104;19.656;2022-12-07T13:52:25;5.63;;;3.40;;
55718;SDS011;41623;46.104;19.656;2022-12-07T13:55:01;14.05;;;4.75;;
55718;SDS011;41623;46.104;19.656;2022-12-07T13:57:28;4.85;;;3.15;;
55718;SDS011;41623;46.104;19.656;2022-12-07T13:59:55;5.25;;;3.45;;
55718;SDS011;41623;46.104;19.656;2022-12-07T14:02:27;4.22;;;3.35;;
55718;SDS011;41623;46.104;19.656;2022-12-07T14:05:06;7.40;;;3.88;;
55718;SDS011;41623;46.104;19.656;2022-12-07T14:07:32;5.65;;;4.55;;
55718;SDS011;41623;46.104;19.656;2022-12-07T14:10:03;7.70;;;3.78;;
55718;SDS011;41623;46.104;19.656;2022-12-07T14:12:30;10.75;;;4.25;;
55718;SDS011;41623;46.104;19.656;2022-12-07T14:14:57;8.90;;;4.20;;
55718;SDS011;41623;46.104;19.656;2022-12-07T14:17:24;11.15;;;4.13;;
55718;SDS011;41623;46.104;19.656;2022-12-07T14:19:52;8.88;;;5.75;;
55718;SDS011;41623;46.104;19.656;2022-12-07T14:24:46;7.80;;;4.88;;
55718;SDS011;41623;46.104;19.656;2022-12-07T14:27:22;6.18;;;4.35;;
55718;SDS011;41623;46.104;19.656;2022-12-07T14:29:50;8.45;;;4.45;;
55718;SDS011;41623;46.104;19.656;2022-12-07T14:32:24;11.75;;;5.82;;
55718;SDS011;41623;46.104;19.656;2022-12-07T14:34:57;7.82;;;4.65;;
55718;SDS011;41623;46.104;19.656;2022-12-07T14:37:24;6.97;;;5.07;;
55718;SDS011;41623;46.104;19.656;2022-12-07T14:39:50;13.07;;;5.88;;
55718;SDS011;41623;46.104;19.656;2022-12-07T14:42:16;9.20;;;5.53;;
55718;SDS011;41623;46.104;19.656;2022-12-07T14:44:43;9.88;;;4.90;;
55718;SDS011;41623;46.104;19.656;2022-12-07T14:47:13;10.48;;;4.60;;
55718;SDS011;41623;46.104;19.656;2022-12-07T14:49:39;11.07;;;5.38;;
55718;SDS011;41623;46.104;19.656;2022-12-07T14:52:05;8.80;;;5.80;;
55718;SDS011;41623;46.104;19.656;2022-12-07T14:54:35;8.20;;;4.88;;
55718;SDS011;41623;46.104;19.656;2022-12-07T14:57:01;10.63;;;5.03;;
55718;SDS011;41623;46.104;19.656;2022-12-07T14:59:27;5.55;;;3.65;;
55718;SDS011;41623;46.104;19.656;2022-12-07T15:01:54;13.18;;;5.70;;
55718;SDS011;41623;46.104;19.656;2022-12-07T15:04:20;15.52;;;6.68;;
55718;SDS011;41623;46.104;19.656;2022-12-07T15:06:58;11.38;;;5.45;;
55718;SDS011;41623;46.104;19.656;2022-12-07T15:09:25;11.38;;;5.88;;
55718;SDS011;41623;46.104;19.656;2022-12-07T15:11:51;11.75;;;6.05;;
55718;SDS011;41623;46.104;19.656;2022-12-07T15:14:17;20.55;;;8.32;;
55718;SDS011;41623;46.104;19.656;2022-12-07T15:16:43;14.35;;;7.68;;
55718;SDS011;41623;46.104;19.656;2022-12-07T15:19:19;16.25;;;7.20;;
55718;SDS011;41623;46.104;19.656;2022-12-07T15:21:48;29.05;;;9.70;;
55718;SDS011;41623;46.104;19.656;2022-12-07T15:24:14;21.70;;;11.45;;
55718;SDS011;41623;46.104;19.656;2022-12-07T15:26:40;35.35;;;15.68;;
55718;SDS011;41623;46.104;19.656;2022-12-07T15:29:07;39.10;;;18.15;;
55718;SDS011;41623;46.104;19.656;2022-12-07T15:31:33;41.55;;;17.05;;
55718;SDS011;41623;46.104;19.656;2022-12-07T15:33:59;37.20;;;16.95;;
55718;SDS011;41623;46.104;19.656;2022-12-07T15:36:27;31.73;;;13.25;;
55718;SDS011;41623;46.104;19.656;2022-12-07T15:38:53;44.95;;;17.33;;
55718;SDS011;41623;46.104;19.656;2022-12-07T15:41:19;48.50;;;16.85;;
55718;SDS011;41623;46.104;19.656;2022-12-07T15:43:46;61.70;;;21.08;;
55718;SDS011;41623;46.104;19.656;2022-12-07T15:46:31;64.75;;;26.27;;
55718;SDS011;41623;46.104;19.656;2022-12-07T15:48:58;63.63;;;25.85;;
55718;SDS011;41623;46.104;19.656;2022-12-07T15:51:24;85.53;;;32.22;;
55718;SDS011;41623;46.104;19.656;2022-12-07T15:53:51;83.40;;;33.90;;
55718;SDS011;41623;46.104;19.656;2022-12-07T15:56:17;112.93;;;41.17;;
55718;SDS011;41623;46.104;19.656;2022-12-07T15:58:43;120.13;;;45.53;;
55718;SDS011;41623;46.104;19.656;2022-12-07T16:01:10;93.28;;;44.30;;
55718;SDS011;41623;46.104;19.656;2022-12-07T16:03:36;122.72;;;51.50;;
55718;SDS011;41623;46.104;19.656;2022-12-07T16:06:03;145.93;;;48.42;;
55718;SDS011;41623;46.104;19.656;2022-12-07T16:08:29;135.70;;;49.40;;
55718;SDS011;41623;46.104;19.656;2022-12-07T16:10:55;145.48;;;55.00;;
55718;SDS011;41623;46.104;19.656;2022-12-07T16:13:21;148.93;;;60.28;;
55718;SDS011;41623;46.104;19.656;2022-12-07T16:15:47;139.65;;;56.47;;
55718;SDS011;41623;46.104;19.656;2022-12-07T16:18:15;142.90;;;56.83;;
55718;SDS011;41623;46.104;19.656;2022-12-07T16:20:41;146.43;;;56.40;;
55718;SDS011;41623;46.104;19.656;2022-12-07T16:23:08;138.40;;;51.30;;
55718;SDS011;41623;46.104;19.656;2022-12-07T16:25:34;128.70;;;47.70;;
55718;SDS011;41623;46.104;19.656;2022-12-07T16:28:00;101.03;;;48.63;;
55718;SDS011;41623;46.104;19.656;2022-12-07T16:30:26;111.68;;;47.35;;
55718;SDS011;41623;46.104;19.656;2022-12-07T16:32:52;132.30;;;51.58;;
55718;SDS011;41623;46.104;19.656;2022-12-07T16:35:18;125.65;;;47.83;;
55718;SDS011;41623;46.104;19.656;2022-12-07T16:37:44;127.90;;;50.20;;
55718;SDS011;41623;46.104;19.656;2022-12-07T16:40:10;101.70;;;47.92;;